sensor_id;sensor_type;location;lat;lon;timestamp;temperature;humidity
831;DHT22;397;50.564;7.272;2023-01-15T00:01:47;10.10;99.90
831;DHT22;397;50.564;7.272;2023-01-15T00:04:15;9.90;99.90
831;DHT22;397;50.564;7.272;2023-01-15T00:06:43;9.90;99.90
831;DHT22;397;50.564;7.272;2023-01-15T00:09:13;9.90;99.90
831;DHT22;397;50.564;7.272;2023-01-15T00:11:41;9.80;99.90
831;DHT22;397;50.564;7.272;2023-01-15T00:14:09;9.50;99.90
831;DHT22;397;50.564;7.272;2023-01-15T00:16:37;9.60;99.90
831;DHT22;397;50.564;7.272;2023-01-15T00:19:09;9.40;99.90
831;DHT22;397;50.564;7.272;2023-01-15T00:21:38;9.30;99.90
831;DHT22;397;50.564;7.272;2023-01-15T00:24:05;9.30;99.90
831;DHT22;397;50.564;7.272;2023-01-15T00:26:51;9.40;99.90
831;DHT22;397;50.564;7.272;2023-01-15T00:29:37;9.30;99.90
831;DHT22;397;50.564;7.272;2023-01-15T00:32:06;9.40;99.90
831;DHT22;397;50.564;7.272;2023-01-15T00:34:34;9.40;99.90
831;DHT22;397;50.564;7.272;2023-01-15T00:37:02;9.40;99.90
831;DHT22;397;50.564;7.272;2023-01-15T00:39:30;9.30;99.90
831;DHT22;397;50.564;7.272;2023-01-15T00:41:57;9.30;99.90
831;DHT22;397;50.564;7.272;2023-01-15T00:44:24;9.30;99.90
831;DHT22;397;50.564;7.272;2023-01-15T00:46:52;9.00;99.90
831;DHT22;397;50.564;7.272;2023-01-15T00:49:20;8.90;99.90
831;DHT22;397;50.564;7.272;2023-01-15T00:51:47;8.70;99.90
831;DHT22;397;50.564;7.272;2023-01-15T00:54:16;8.70;99.90
831;DHT22;397;50.564;7.272;2023-01-15T00:56:44;8.70;99.90
831;DHT22;397;50.564;7.272;2023-01-15T00:59:12;8.50;99.90
831;DHT22;397;50.564;7.272;2023-01-15T01:01:39;8.60;99.90
831;DHT22;397;50.564;7.272;2023-01-15T01:04:07;8.50;99.90
831;DHT22;397;50.564;7.272;2023-01-15T01:06:34;8.40;99.90
831;DHT22;397;50.564;7.272;2023-01-15T01:09:02;8.30;99.90
831;DHT22;397;50.564;7.272;2023-01-15T01:11:30;8.30;99.90
831;DHT22;397;50.564;7.272;2023-01-15T01:14:00;8.40;99.90
831;DHT22;397;50.564;7.272;2023-01-15T01:16:33;8.40;99.90
831;DHT22;397;50.564;7.272;2023-01-15T01:19:05;8.40;99.90
831;DHT22;397;50.564;7.272;2023-01-15T01:21:40;8.50;99.90
831;DHT22;397;50.564;7.272;2023-01-15T01:24:04;8.40;99.90
831;DHT22;397;50.564;7.272;2023-01-15T01:26:32;8.30;99.90
831;DHT22;397;50.564;7.272;2023-01-15T01:29:00;8.20;99.90
831;DHT22;397;50.564;7.272;2023-01-15T01:31:27;8.10;99.90
831;DHT22;397;50.564;7.272;2023-01-15T01:33:57;7.90;99.90
831;DHT22;397;50.564;7.272;2023-01-15T01:36:31;8.00;99.90
831;DHT22;397;50.564;7.272;2023-01-15T01:39:00;8.10;99.90
831;DHT22;397;50.564;7.272;2023-01-15T01:41:28;8.20;99.90
831;DHT22;397;50.564;7.272;2023-01-15T01:44:03;8.00;99.90
831;DHT22;397;50.564;7.272;2023-01-15T01:46:34;8.20;99.90
831;DHT22;397;50.564;7.272;2023-01-15T01:49:07;8.00;99.90
831;DHT22;397;50.564;7.272;2023-01-15T01:51:38;7.90;99.90
831;DHT22;397;50.564;7.272;2023-01-15T01:54:06;7.80;99.90
831;DHT22;397;50.564;7.272;2023-01-15T01:56:35;7.80;99.90
831;DHT22;397;50.564;7.272;2023-01-15T01:59:04;7.80;99.90
831;DHT22;397;50.564;7.272;2023-01-15T02:01:33;7.80;99.90
831;DHT22;397;50.564;7.272;2023-01-15T02:04:01;7.70;99.90
831;DHT22;397;50.564;7.272;2023-01-15T02:06:29;7.70;99.90
831;DHT22;397;50.564;7.272;2023-01-15T02:08:57;7.60;99.90
831;DHT22;397;50.564;7.272;2023-01-15T02:11:25;7.60;99.90
831;DHT22;397;50.564;7.272;2023-01-15T02:16:57;7.70;99.90
831;DHT22;397;50.564;7.272;2023-01-15T02:25:53;7.80;99.90
831;DHT22;397;50.564;7.272;2023-01-15T02:28:25;7.60;99.90
831;DHT22;397;50.564;7.272;2023-01-15T02:30:59;7.50;99.90
831;DHT22;397;50.564;7.272;2023-01-15T02:33:30;7.60;99.90
831;DHT22;397;50.564;7.272;2023-01-15T02:35:58;7.60;99.90
831;DHT22;397;50.564;7.272;2023-01-15T02:38:33;7.70;99.90
831;DHT22;397;50.564;7.272;2023-01-15T02:41:02;7.70;99.90
831;DHT22;397;50.564;7.272;2023-01-15T02:43:32;7.60;99.90
831;DHT22;397;50.564;7.272;2023-01-15T02:46:03;7.60;99.90
831;DHT22;397;50.564;7.272;2023-01-15T02:48:33;7.40;99.90
831;DHT22;397;50.564;7.272;2023-01-15T02:51:07;7.50;99.90
831;DHT22;397;50.564;7.272;2023-01-15T02:53:37;7.50;99.90
831;DHT22;397;50.564;7.272;2023-01-15T02:56:12;7.50;99.90
831;DHT22;397;50.564;7.272;2023-01-15T02:58:41;7.60;99.90
831;DHT22;397;50.564;7.272;2023-01-15T03:01:23;7.60;99.90
831;DHT22;397;50.564;7.272;2023-01-15T03:04:06;7.30;99.90
831;DHT22;397;50.564;7.272;2023-01-15T03:06:45;7.30;99.90
831;DHT22;397;50.564;7.272;2023-01-15T03:09:12;7.00;99.90
831;DHT22;397;50.564;7.272;2023-01-15T03:11:46;7.00;99.90
831;DHT22;397;50.564;7.272;2023-01-15T03:16:58;7.10;99.90
831;DHT22;397;50.564;7.272;2023-01-15T03:19:38;7.20;99.90
831;DHT22;397;50.564;7.272;2023-01-15T03:24:59;7.30;99.90
831;DHT22;397;50.564;7.272;2023-01-15T03:27:26;7.20;99.90
831;DHT22;397;50.564;7.272;2023-01-15T03:30:07;7.20;99.90
831;DHT22;397;50.564;7.272;2023-01-15T03:32:31;7.40;99.90
831;DHT22;397;50.564;7.272;2023-01-15T03:34:59;7.30;99.90
831;DHT22;397;50.564;7.272;2023-01-15T03:37:28;7.40;99.90
831;DHT22;397;50.564;7.272;2023-01-15T03:39:57;7.30;99.90
831;DHT22;397;50.564;7.272;2023-01-15T03:42:41;7.30;99.90
831;DHT22;397;50.564;7.272;2023-01-15T03:45:29;7.30;99.90
831;DHT22;397;50.564;7.272;2023-01-15T03:50:36;7.40;99.90
831;DHT22;397;50.564;7.272;2023-01-15T03:53:20;7.30;99.90
831;DHT22;397;50.564;7.272;2023-01-15T03:56:10;7.30;99.90
831;DHT22;397;50.564;7.272;2023-01-15T03:58:39;7.30;99.90
831;DHT22;397;50.564;7.272;2023-01-15T04:01:09;7.30;99.90
831;DHT22;397;50.564;7.272;2023-01-15T04:03:38;7.30;99.90
831;DHT22;397;50.564;7.272;2023-01-15T04:06:06;7.20;99.90
831;DHT22;397;50.564;7.272;2023-01-15T04:08:37;7.30;99.90
831;DHT22;397;50.564;7.272;2023-01-15T04:11:05;7.20;99.90
831;DHT22;397;50.564;7.272;2023-01-15T04:13:33;7.10;99.90
831;DHT22;397;50.564;7.272;2023-01-15T04:16:00;7.10;99.90
831;DHT22;397;50.564;7.272;2023-01-15T04:18:28;6.90;99.90
831;DHT22;397;50.564;7.272;2023-01-15T04:20:55;6.80;99.90
831;DHT22;397;50.564;7.272;2023-01-15T04:23:23;6.80;99.90
831;DHT22;397;50.564;7.272;2023-01-15T04:25:50;6.90;99.90
831;DHT22;397;50.564;7.272;2023-01-15T04:28:18;6.80;99.90
831;DHT22;397;50.564;7.272;2023-01-15T04:30:45;6.60;99.90
831;DHT22;397;50.564;7.272;2023-01-15T04:33:13;6.50;99.90
831;DHT22;397;50.564;7.272;2023-01-15T04:35:40;6.50;99.90
831;DHT22;397;50.564;7.272;2023-01-15T04:38:08;6.60;99.90
831;DHT22;397;50.564;7.272;2023-01-15T04:40:35;6.70;99.90
831;DHT22;397;50.564;7.272;2023-01-15T04:43:21;6.80;99.90
831;DHT22;397;50.564;7.272;2023-01-15T04:46:06;6.70;99.90
831;DHT22;397;50.564;7.272;2023-01-15T04:48:34;6.50;99.90
831;DHT22;397;50.564;7.272;2023-01-15T04:51:02;6.60;99.90
831;DHT22;397;50.564;7.272;2023-01-15T04:53:30;6.70;99.90
831;DHT22;397;50.564;7.272;2023-01-15T04:56:05;6.60;99.90
831;DHT22;397;50.564;7.272;2023-01-15T04:58:34;6.60;99.90
831;DHT22;397;50.564;7.272;2023-01-15T05:01:02;6.60;99.90
831;DHT22;397;50.564;7.272;2023-01-15T05:03:31;6.70;99.90
831;DHT22;397;50.564;7.272;2023-01-15T05:06:01;6.70;99.90
831;DHT22;397;50.564;7.272;2023-01-15T05:08:29;6.70;99.90
831;DHT22;397;50.564;7.272;2023-01-15T05:11:02;6.70;99.90
831;DHT22;397;50.564;7.272;2023-01-15T05:13:30;6.70;99.90
831;DHT22;397;50.564;7.272;2023-01-15T05:16:10;6.60;99.90
831;DHT22;397;50.564;7.272;2023-01-15T05:18:38;6.60;99.90
831;DHT22;397;50.564;7.272;2023-01-15T05:21:11;6.70;99.90
831;DHT22;397;50.564;7.272;2023-01-15T05:23:35;6.60;99.90
831;DHT22;397;50.564;7.272;2023-01-15T05:26:03;6.50;99.90
831;DHT22;397;50.564;7.272;2023-01-15T05:28:30;6.50;99.90
831;DHT22;397;50.564;7.272;2023-01-15T05:30:58;6.50;99.90
831;DHT22;397;50.564;7.272;2023-01-15T05:33:25;6.60;99.90
831;DHT22;397;50.564;7.272;2023-01-15T05:35:53;6.60;99.90
831;DHT22;397;50.564;7.272;2023-01-15T05:38:20;6.70;99.90
831;DHT22;397;50.564;7.272;2023-01-15T05:40:48;6.60;99.90
831;DHT22;397;50.564;7.272;2023-01-15T05:43:15;6.70;99.90
831;DHT22;397;50.564;7.272;2023-01-15T05:45:43;6.60;99.90
831;DHT22;397;50.564;7.272;2023-01-15T05:48:10;6.50;99.90
831;DHT22;397;50.564;7.272;2023-01-15T05:50:38;6.60;99.90
831;DHT22;397;50.564;7.272;2023-01-15T05:53:06;6.60;99.90
831;DHT22;397;50.564;7.272;2023-01-15T05:55:34;6.60;99.90
831;DHT22;397;50.564;7.272;2023-01-15T05:58:01;6.60;99.90
831;DHT22;397;50.564;7.272;2023-01-15T06:00:29;6.50;99.90
831;DHT22;397;50.564;7.272;2023-01-15T06:02:56;6.50;99.90
831;DHT22;397;50.564;7.272;2023-01-15T06:05:24;6.40;99.90
831;DHT22;397;50.564;7.272;2023-01-15T06:07:51;6.20;99.90
831;DHT22;397;50.564;7.272;2023-01-15T06:10:19;6.20;99.90
831;DHT22;397;50.564;7.272;2023-01-15T06:12:46;6.30;99.90
831;DHT22;397;50.564;7.272;2023-01-15T06:15:14;6.40;99.90
831;DHT22;397;50.564;7.272;2023-01-15T06:17:41;6.40;99.90
831;DHT22;397;50.564;7.272;2023-01-15T06:20:09;6.30;99.90
831;DHT22;397;50.564;7.272;2023-01-15T06:22:37;6.40;99.90
831;DHT22;397;50.564;7.272;2023-01-15T06:25:05;6.50;99.90
831;DHT22;397;50.564;7.272;2023-01-15T06:27:32;6.50;99.90
831;DHT22;397;50.564;7.272;2023-01-15T06:30:00;6.20;99.90
831;DHT22;397;50.564;7.272;2023-01-15T06:32:27;6.10;99.90
831;DHT22;397;50.564;7.272;2023-01-15T06:34:55;6.20;99.90
831;DHT22;397;50.564;7.272;2023-01-15T06:37:22;6.30;99.90
831;DHT22;397;50.564;7.272;2023-01-15T06:39:50;6.20;99.90
831;DHT22;397;50.564;7.272;2023-01-15T06:42:17;6.10;99.90
831;DHT22;397;50.564;7.272;2023-01-15T06:45:03;6.00;99.90
831;DHT22;397;50.564;7.272;2023-01-15T06:47:48;6.20;99.90
831;DHT22;397;50.564;7.272;2023-01-15T06:50:16;6.10;99.90
831;DHT22;397;50.564;7.272;2023-01-15T06:52:43;6.10;99.90
831;DHT22;397;50.564;7.272;2023-01-15T06:55:11;6.10;99.90
831;DHT22;397;50.564;7.272;2023-01-15T06:57:39;6.10;99.90
831;DHT22;397;50.564;7.272;2023-01-15T07:00:08;6.20;99.90
831;DHT22;397;50.564;7.272;2023-01-15T07:02:36;6.00;99.90
831;DHT22;397;50.564;7.272;2023-01-15T07:05:04;6.10;99.90
831;DHT22;397;50.564;7.272;2023-01-15T07:07:31;6.10;99.90
831;DHT22;397;50.564;7.272;2023-01-15T07:09:59;6.10;99.90
831;DHT22;397;50.564;7.272;2023-01-15T07:12:26;6.10;99.90
831;DHT22;397;50.564;7.272;2023-01-15T07:14:54;6.00;99.90
831;DHT22;397;50.564;7.272;2023-01-15T07:17:21;6.10;99.90
831;DHT22;397;50.564;7.272;2023-01-15T07:19:49;6.10;99.90
831;DHT22;397;50.564;7.272;2023-01-15T07:22:16;6.20;99.90
831;DHT22;397;50.564;7.272;2023-01-15T07:24:44;6.00;99.90
831;DHT22;397;50.564;7.272;2023-01-15T07:27:11;6.10;99.90
831;DHT22;397;50.564;7.272;2023-01-15T07:29:39;6.00;99.90
831;DHT22;397;50.564;7.272;2023-01-15T07:32:06;6.10;99.90
831;DHT22;397;50.564;7.272;2023-01-15T07:34:34;6.10;99.90
831;DHT22;397;50.564;7.272;2023-01-15T07:37:01;6.00;99.90
831;DHT22;397;50.564;7.272;2023-01-15T07:39:29;6.10;99.90
831;DHT22;397;50.564;7.272;2023-01-15T07:41:57;6.10;99.90
831;DHT22;397;50.564;7.272;2023-01-15T07:44:42;6.10;99.90
831;DHT22;397;50.564;7.272;2023-01-15T07:47:28;6.10;99.90
831;DHT22;397;50.564;7.272;2023-01-15T07:50:16;5.90;99.90
831;DHT22;397;50.564;7.272;2023-01-15T07:52:44;6.00;99.90
831;DHT22;397;50.564;7.272;2023-01-15T07:55:12;5.90;99.90
831;DHT22;397;50.564;7.272;2023-01-15T07:57:40;5.90;99.90
831;DHT22;397;50.564;7.272;2023-01-15T08:00:14;5.90;99.90
831;DHT22;397;50.564;7.272;2023-01-15T08:02:42;5.80;99.90
831;DHT22;397;50.564;7.272;2023-01-15T08:05:11;5.80;99.90
831;DHT22;397;50.564;7.272;2023-01-15T08:07:40;5.90;99.90
831;DHT22;397;50.564;7.272;2023-01-15T08:10:09;6.00;99.90
831;DHT22;397;50.564;7.272;2023-01-15T08:12:37;6.10;99.90
831;DHT22;397;50.564;7.272;2023-01-15T08:15:22;5.90;99.90
831;DHT22;397;50.564;7.272;2023-01-15T08:17:50;6.10;99.90
831;DHT22;397;50.564;7.272;2023-01-15T08:20:20;6.10;99.90
831;DHT22;397;50.564;7.272;2023-01-15T08:22:48;6.20;99.90
831;DHT22;397;50.564;7.272;2023-01-15T08:25:18;6.40;99.90
831;DHT22;397;50.564;7.272;2023-01-15T08:27:46;6.40;99.90
831;DHT22;397;50.564;7.272;2023-01-15T08:30:16;6.40;99.90
831;DHT22;397;50.564;7.272;2023-01-15T08:32:45;6.50;99.90
831;DHT22;397;50.564;7.272;2023-01-15T08:35:13;6.50;99.90
831;DHT22;397;50.564;7.272;2023-01-15T08:37:41;6.60;99.90
831;DHT22;397;50.564;7.272;2023-01-15T08:40:12;6.60;99.90
831;DHT22;397;50.564;7.272;2023-01-15T08:42:39;6.70;99.90
831;DHT22;397;50.564;7.272;2023-01-15T08:45:08;6.70;99.90
831;DHT22;397;50.564;7.272;2023-01-15T08:47:36;6.80;99.90
831;DHT22;397;50.564;7.272;2023-01-15T08:50:05;6.80;99.90
831;DHT22;397;50.564;7.272;2023-01-15T08:52:33;6.80;99.90
831;DHT22;397;50.564;7.272;2023-01-15T08:55:01;6.70;99.90
831;DHT22;397;50.564;7.272;2023-01-15T08:57:29;6.50;99.90
831;DHT22;397;50.564;7.272;2023-01-15T08:59:56;6.60;99.90
831;DHT22;397;50.564;7.272;2023-01-15T09:02:23;6.50;99.90
831;DHT22;397;50.564;7.272;2023-01-15T09:04:51;6.50;99.90
831;DHT22;397;50.564;7.272;2023-01-15T09:07:19;6.70;99.90
831;DHT22;397;50.564;7.272;2023-01-15T09:09:46;6.60;99.90
831;DHT22;397;50.564;7.272;2023-01-15T09:12:13;6.50;99.90
831;DHT22;397;50.564;7.272;2023-01-15T09:14:41;6.60;99.90
831;DHT22;397;50.564;7.272;2023-01-15T09:17:08;6.70;99.90
831;DHT22;397;50.564;7.272;2023-01-15T09:19:36;6.90;99.90
831;DHT22;397;50.564;7.272;2023-01-15T09:22:03;6.80;99.90
831;DHT22;397;50.564;7.272;2023-01-15T09:24:31;6.90;99.90
831;DHT22;397;50.564;7.272;2023-01-15T09:26:58;6.80;99.90
831;DHT22;397;50.564;7.272;2023-01-15T09:29:26;6.90;99.90
831;DHT22;397;50.564;7.272;2023-01-15T09:31:53;6.90;99.90
831;DHT22;397;50.564;7.272;2023-01-15T09:34:21;6.90;99.90
831;DHT22;397;50.564;7.272;2023-01-15T09:36:48;6.80;99.90
831;DHT22;397;50.564;7.272;2023-01-15T09:39:16;7.00;99.90
831;DHT22;397;50.564;7.272;2023-01-15T09:42:12;7.10;99.90
831;DHT22;397;50.564;7.272;2023-01-15T09:44:50;6.90;99.90
831;DHT22;397;50.564;7.272;2023-01-15T09:49:57;6.90;99.90
831;DHT22;397;50.564;7.272;2023-01-15T09:52:35;6.90;99.90
831;DHT22;397;50.564;7.272;2023-01-15T09:55:27;6.90;99.90
831;DHT22;397;50.564;7.272;2023-01-15T09:57:58;6.90;99.90
831;DHT22;397;50.564;7.272;2023-01-15T10:00:28;7.00;99.90
831;DHT22;397;50.564;7.272;2023-01-15T10:03:03;7.10;99.90
831;DHT22;397;50.564;7.272;2023-01-15T10:05:44;6.90;99.90
831;DHT22;397;50.564;7.272;2023-01-15T10:08:15;7.00;99.90
831;DHT22;397;50.564;7.272;2023-01-15T10:10:45;7.10;99.90
831;DHT22;397;50.564;7.272;2023-01-15T10:15:50;7.30;99.90
831;DHT22;397;50.564;7.272;2023-01-15T10:18:19;7.40;99.90
831;DHT22;397;50.564;7.272;2023-01-15T10:21:09;7.30;99.90
831;DHT22;397;50.564;7.272;2023-01-15T10:24:21;7.20;99.90
831;DHT22;397;50.564;7.272;2023-01-15T10:28:55;7.30;99.90
831;DHT22;397;50.564;7.272;2023-01-15T10:31:22;7.10;99.90
831;DHT22;397;50.564;7.272;2023-01-15T10:33:56;7.30;99.90
831;DHT22;397;50.564;7.272;2023-01-15T10:36:24;7.40;99.90
831;DHT22;397;50.564;7.272;2023-01-15T10:42:09;7.50;99.90
831;DHT22;397;50.564;7.272;2023-01-15T10:44:36;7.30;99.90
831;DHT22;397;50.564;7.272;2023-01-15T10:47:07;7.30;99.90
831;DHT22;397;50.564;7.272;2023-01-15T10:49:36;7.30;99.90
831;DHT22;397;50.564;7.272;2023-01-15T10:52:55;7.40;99.90
831;DHT22;397;50.564;7.272;2023-01-15T10:54:44;7.50;99.90
831;DHT22;397;50.564;7.272;2023-01-15T10:57:43;7.60;99.90
831;DHT22;397;50.564;7.272;2023-01-15T10:59:58;7.60;99.90
831;DHT22;397;50.564;7.272;2023-01-15T11:02:41;7.80;99.90
831;DHT22;397;50.564;7.272;2023-01-15T11:05:16;7.80;99.90
831;DHT22;397;50.564;7.272;2023-01-15T11:07:47;7.80;99.90
831;DHT22;397;50.564;7.272;2023-01-15T11:10:18;7.80;99.90
831;DHT22;397;50.564;7.272;2023-01-15T11:12:54;7.80;99.90
831;DHT22;397;50.564;7.272;2023-01-15T11:15:45;7.80;99.90
831;DHT22;397;50.564;7.272;2023-01-15T11:18:33;7.80;99.90
831;DHT22;397;50.564;7.272;2023-01-15T11:21:21;7.90;99.90
831;DHT22;397;50.564;7.272;2023-01-15T11:23:50;7.90;99.90
831;DHT22;397;50.564;7.272;2023-01-15T11:26:27;8.00;99.90
831;DHT22;397;50.564;7.272;2023-01-15T11:28:55;8.00;99.90
831;DHT22;397;50.564;7.272;2023-01-15T11:31:37;8.10;99.90
831;DHT22;397;50.564;7.272;2023-01-15T11:34:20;8.00;99.90
831;DHT22;397;50.564;7.272;2023-01-15T11:36:45;8.00;99.90
831;DHT22;397;50.564;7.272;2023-01-15T11:39:26;8.00;99.90
831;DHT22;397;50.564;7.272;2023-01-15T11:42:05;8.00;99.90
831;DHT22;397;50.564;7.272;2023-01-15T11:44:56;8.00;99.90
831;DHT22;397;50.564;7.272;2023-01-15T11:47:53;8.10;99.90
831;DHT22;397;50.564;7.272;2023-01-15T11:50:48;8.30;99.90
831;DHT22;397;50.564;7.272;2023-01-15T11:53:26;8.60;99.90
831;DHT22;397;50.564;7.272;2023-01-15T11:55:51;8.50;99.90
831;DHT22;397;50.564;7.272;2023-01-15T11:58:19;8.60;99.90
831;DHT22;397;50.564;7.272;2023-01-15T12:00:48;8.50;99.90
831;DHT22;397;50.564;7.272;2023-01-15T12:03:20;8.50;99.90
831;DHT22;397;50.564;7.272;2023-01-15T12:06:00;8.40;99.90
831;DHT22;397;50.564;7.272;2023-01-15T12:09:19;8.50;99.90
831;DHT22;397;50.564;7.272;2023-01-15T12:14:23;8.70;99.90
831;DHT22;397;50.564;7.272;2023-01-15T12:19:34;8.50;99.90
831;DHT22;397;50.564;7.272;2023-01-15T12:24:40;8.60;99.90
831;DHT22;397;50.564;7.272;2023-01-15T12:27:18;8.60;99.90
831;DHT22;397;50.564;7.272;2023-01-15T12:29:45;8.70;99.90
831;DHT22;397;50.564;7.272;2023-01-15T12:32:22;8.70;99.90
831;DHT22;397;50.564;7.272;2023-01-15T12:37:49;8.90;99.90
831;DHT22;397;50.564;7.272;2023-01-15T12:40:19;8.80;99.90
831;DHT22;397;50.564;7.272;2023-01-15T12:42:50;8.70;99.90
831;DHT22;397;50.564;7.272;2023-01-15T12:45:39;8.70;99.90
831;DHT22;397;50.564;7.272;2023-01-15T12:48:15;8.80;99.90
831;DHT22;397;50.564;7.272;2023-01-15T12:50:53;8.80;99.90
831;DHT22;397;50.564;7.272;2023-01-15T12:53:37;8.80;99.90
831;DHT22;397;50.564;7.272;2023-01-15T12:56:32;8.90;99.90
831;DHT22;397;50.564;7.272;2023-01-15T13:07:13;8.90;99.90
831;DHT22;397;50.564;7.272;2023-01-15T13:09:57;8.80;99.90
831;DHT22;397;50.564;7.272;2023-01-15T13:12:25;8.90;99.90
831;DHT22;397;50.564;7.272;2023-01-15T13:14:54;9.00;99.90
831;DHT22;397;50.564;7.272;2023-01-15T13:17:32;8.90;99.90
831;DHT22;397;50.564;7.272;2023-01-15T13:20:09;8.90;99.90
831;DHT22;397;50.564;7.272;2023-01-15T13:22:33;8.90;99.90
831;DHT22;397;50.564;7.272;2023-01-15T13:28:24;8.90;99.90
831;DHT22;397;50.564;7.272;2023-01-15T13:33:42;8.90;99.90
831;DHT22;397;50.564;7.272;2023-01-15T13:38:43;9.00;99.90
831;DHT22;397;50.564;7.272;2023-01-15T13:41:21;9.00;99.90
831;DHT22;397;50.564;7.272;2023-01-15T13:43:46;9.00;99.90
831;DHT22;397;50.564;7.272;2023-01-15T13:46:18;9.10;99.90
831;DHT22;397;50.564;7.272;2023-01-15T13:48:47;9.00;99.90
831;DHT22;397;50.564;7.272;2023-01-15T13:51:26;9.10;99.90
831;DHT22;397;50.564;7.272;2023-01-15T13:53:49;9.20;99.90
831;DHT22;397;50.564;7.272;2023-01-15T13:56:25;9.10;99.90
831;DHT22;397;50.564;7.272;2023-01-15T13:58:58;9.00;99.90
831;DHT22;397;50.564;7.272;2023-01-15T14:04:12;8.90;99.90
831;DHT22;397;50.564;7.272;2023-01-15T14:06:46;9.10;99.90
831;DHT22;397;50.564;7.272;2023-01-15T14:12:08;9.10;99.90
831;DHT22;397;50.564;7.272;2023-01-15T14:17:27;9.00;99.90
831;DHT22;397;50.564;7.272;2023-01-15T14:25:28;9.00;99.90
831;DHT22;397;50.564;7.272;2023-01-15T14:33:41;8.90;99.90
831;DHT22;397;50.564;7.272;2023-01-15T14:36:23;8.80;99.90
831;DHT22;397;50.564;7.272;2023-01-15T14:38:52;8.60;99.90
831;DHT22;397;50.564;7.272;2023-01-15T14:41:31;8.60;99.90
831;DHT22;397;50.564;7.272;2023-01-15T14:44:02;8.50;99.90
831;DHT22;397;50.564;7.272;2023-01-15T14:46:32;8.50;99.90
831;DHT22;397;50.564;7.272;2023-01-15T14:49:01;8.60;99.90
831;DHT22;397;50.564;7.272;2023-01-15T14:51:33;8.60;99.90
831;DHT22;397;50.564;7.272;2023-01-15T14:54:07;8.60;99.90
831;DHT22;397;50.564;7.272;2023-01-15T14:56:48;8.40;99.90
831;DHT22;397;50.564;7.272;2023-01-15T15:02:07;8.40;99.90
831;DHT22;397;50.564;7.272;2023-01-15T15:04:38;8.50;99.90
831;DHT22;397;50.564;7.272;2023-01-15T15:07:15;8.10;99.90
831;DHT22;397;50.564;7.272;2023-01-15T15:09:57;8.10;99.90
831;DHT22;397;50.564;7.272;2023-01-15T15:15:32;7.90;99.90
831;DHT22;397;50.564;7.272;2023-01-15T15:21:04;8.00;99.90
831;DHT22;397;50.564;7.272;2023-01-15T15:23:43;8.00;99.90
831;DHT22;397;50.564;7.272;2023-01-15T15:26:26;7.90;99.90
831;DHT22;397;50.564;7.272;2023-01-15T15:31:33;7.90;99.90
831;DHT22;397;50.564;7.272;2023-01-15T15:33:58;7.90;99.90
831;DHT22;397;50.564;7.272;2023-01-15T15:36:28;7.80;99.90
831;DHT22;397;50.564;7.272;2023-01-15T15:38:58;7.80;99.90
831;DHT22;397;50.564;7.272;2023-01-15T15:41:34;7.90;99.90
831;DHT22;397;50.564;7.272;2023-01-15T15:44:33;7.90;99.90
831;DHT22;397;50.564;7.272;2023-01-15T15:47:20;7.90;99.90
831;DHT22;397;50.564;7.272;2023-01-15T15:50:18;7.80;99.90
831;DHT22;397;50.564;7.272;2023-01-15T15:52:48;7.80;99.90
831;DHT22;397;50.564;7.272;2023-01-15T15:55:18;7.70;99.90
831;DHT22;397;50.564;7.272;2023-01-15T15:57:54;7.70;99.90
831;DHT22;397;50.564;7.272;2023-01-15T16:00:33;7.70;99.90
831;DHT22;397;50.564;7.272;2023-01-15T16:03:16;7.60;99.90
831;DHT22;397;50.564;7.272;2023-01-15T16:05:34;7.60;99.90
831;DHT22;397;50.564;7.272;2023-01-15T16:08:19;7.70;99.90
831;DHT22;397;50.564;7.272;2023-01-15T16:10:49;7.70;99.90
831;DHT22;397;50.564;7.272;2023-01-15T16:13:32;7.50;99.90
831;DHT22;397;50.564;7.272;2023-01-15T16:15:58;7.50;99.90
831;DHT22;397;50.564;7.272;2023-01-15T16:18:35;7.50;99.90
831;DHT22;397;50.564;7.272;2023-01-15T16:21:05;7.50;99.90
831;DHT22;397;50.564;7.272;2023-01-15T16:23:33;7.40;99.90
831;DHT22;397;50.564;7.272;2023-01-15T16:26:13;7.40;99.90
831;DHT22;397;50.564;7.272;2023-01-15T16:28:42;7.50;99.90
831;DHT22;397;50.564;7.272;2023-01-15T16:31:11;7.50;99.90
831;DHT22;397;50.564;7.272;2023-01-15T16:33:39;7.60;99.90
831;DHT22;397;50.564;7.272;2023-01-15T16:36:07;7.50;99.90
831;DHT22;397;50.564;7.272;2023-01-15T16:38:39;7.60;99.90
831;DHT22;397;50.564;7.272;2023-01-15T16:41:23;7.50;99.90
831;DHT22;397;50.564;7.272;2023-01-15T16:43:58;7.60;99.90
831;DHT22;397;50.564;7.272;2023-01-15T16:46:29;7.60;99.90
831;DHT22;397;50.564;7.272;2023-01-15T16:49:17;7.50;99.90
831;DHT22;397;50.564;7.272;2023-01-15T16:51:42;7.60;99.90
831;DHT22;397;50.564;7.272;2023-01-15T16:57:02;7.60;99.90
831;DHT22;397;50.564;7.272;2023-01-15T17:02:15;7.40;99.90
831;DHT22;397;50.564;7.272;2023-01-15T17:04:46;7.40;99.90
831;DHT22;397;50.564;7.272;2023-01-15T17:09:58;7.40;99.90
831;DHT22;397;50.564;7.272;2023-01-15T17:12:38;7.50;99.90
831;DHT22;397;50.564;7.272;2023-01-15T17:17:51;7.50;99.90
831;DHT22;397;50.564;7.272;2023-01-15T17:20:21;7.40;99.90
831;DHT22;397;50.564;7.272;2023-01-15T17:22:53;7.40;99.90
831;DHT22;397;50.564;7.272;2023-01-15T17:25:31;7.50;99.90
831;DHT22;397;50.564;7.272;2023-01-15T17:27:57;7.50;99.90
831;DHT22;397;50.564;7.272;2023-01-15T17:30:29;7.60;99.90
831;DHT22;397;50.564;7.272;2023-01-15T17:33:02;7.60;99.90
831;DHT22;397;50.564;7.272;2023-01-15T17:35:32;7.60;99.90
831;DHT22;397;50.564;7.272;2023-01-15T17:38:00;7.50;99.90
831;DHT22;397;50.564;7.272;2023-01-15T17:40:27;7.60;99.90
831;DHT22;397;50.564;7.272;2023-01-15T17:42:55;7.70;99.90
831;DHT22;397;50.564;7.272;2023-01-15T17:45:29;7.70;99.90
831;DHT22;397;50.564;7.272;2023-01-15T17:47:57;7.50;99.90
831;DHT22;397;50.564;7.272;2023-01-15T17:50:25;7.40;99.90
831;DHT22;397;50.564;7.272;2023-01-15T17:52:54;7.40;99.90
831;DHT22;397;50.564;7.272;2023-01-15T17:55:22;7.40;99.90
831;DHT22;397;50.564;7.272;2023-01-15T17:58:10;7.50;99.90
831;DHT22;397;50.564;7.272;2023-01-15T18:00:56;7.50;99.90
831;DHT22;397;50.564;7.272;2023-01-15T18:03:48;7.40;99.90
831;DHT22;397;50.564;7.272;2023-01-15T18:06:33;7.20;99.90
831;DHT22;397;50.564;7.272;2023-01-15T18:09:03;7.30;99.90
831;DHT22;397;50.564;7.272;2023-01-15T18:11:31;7.20;99.90
831;DHT22;397;50.564;7.272;2023-01-15T18:13:59;7.10;99.90
831;DHT22;397;50.564;7.272;2023-01-15T18:16:27;7.20;99.90
831;DHT22;397;50.564;7.272;2023-01-15T18:18:55;7.20;99.90
831;DHT22;397;50.564;7.272;2023-01-15T18:21:22;7.20;99.90
831;DHT22;397;50.564;7.272;2023-01-15T18:23:50;7.30;99.90
831;DHT22;397;50.564;7.272;2023-01-15T18:26:17;7.20;99.90
831;DHT22;397;50.564;7.272;2023-01-15T18:28:45;7.30;99.90
831;DHT22;397;50.564;7.272;2023-01-15T18:31:12;7.30;99.90
831;DHT22;397;50.564;7.272;2023-01-15T18:33:40;7.30;99.90
831;DHT22;397;50.564;7.272;2023-01-15T18:36:12;7.30;99.90
831;DHT22;397;50.564;7.272;2023-01-15T18:38:42;7.30;99.90
831;DHT22;397;50.564;7.272;2023-01-15T18:41:19;7.30;99.90
831;DHT22;397;50.564;7.272;2023-01-15T18:44:05;7.30;99.90
831;DHT22;397;50.564;7.272;2023-01-15T18:46:54;7.30;99.90
831;DHT22;397;50.564;7.272;2023-01-15T18:49:21;7.10;99.90
831;DHT22;397;50.564;7.272;2023-01-15T18:51:49;7.20;99.90
831;DHT22;397;50.564;7.272;2023-01-15T18:54:35;7.00;99.90
831;DHT22;397;50.564;7.272;2023-01-15T18:57:03;7.00;99.90
831;DHT22;397;50.564;7.272;2023-01-15T18:59:32;7.10;99.90
831;DHT22;397;50.564;7.272;2023-01-15T19:02:00;7.10;99.90